Time;durP1;ratioP1;P1;durP2;ratioP2;P2;SDS_P1;SDS_P2;PMS_P1;PMS_P2;Temp;Humidity;BMP_temperature;BMP_pressure;BME280_temperature;BME280_humidity;BME280_pressure;Samples;Min_cycle;Max_cycle;Signal;HPM_P1;HPM_P2
2022/06/30 00:02:01;;;;;;;4.87;2.23;;;13.90;99.90;;;;;;5084431;28;20196;-66
2022/06/30 00:04:28;;;;;;;7.60;2.13;;;14.10;99.90;;;;;;5092059;28;20171;-66
2022/06/30 00:06:56;;;;;;;5.83;1.80;;;14.60;99.90;;;;;;5092073;28;20218;-66
2022/06/30 00:09:24;;;;;;;5.57;2.03;;;15.40;99.90;;;;;;5104397;28;20179;-69
2022/06/30 00:11:52;;;;;;;2.93;2.33;;;16.20;99.90;;;;;;5095195;28;20172;-69
2022/06/30 00:14:19;;;;;;;2.20;1.57;;;16.70;99.90;;;;;;5091932;28;20218;-69
2022/06/30 00:16:48;;;;;;;3.07;1.87;;;17.00;99.90;;;;;;5091652;28;20210;-68
2022/06/30 00:19:16;;;;;;;7.30;1.93;;;17.30;99.90;;;;;;5092104;28;20188;-70
2022/06/30 00:21:44;;;;;;;1.93;1.60;;;16.80;99.90;;;;;;5091853;28;20712;-68
2022/06/30 00:24:11;;;;;;;3.00;1.63;;;17.00;99.90;;;;;;5091992;28;20191;-68
2022/06/30 00:26:39;;;;;;;7.27;1.93;;;17.30;99.90;;;;;;5091393;28;20258;-68
2022/06/30 00:29:07;;;;;;;9.60;1.70;;;17.60;99.90;;;;;;5091284;28;20592;-68
2022/06/30 00:31:34;;;;;;;7.87;1.70;;;17.90;99.90;;;;;;5091219;28;20522;-67
2022/06/30 00:34:02;;;;;;;5.50;1.73;;;18.10;99.90;;;;;;5091494;28;20179;-68
2022/06/30 00:36:30;;;;;;;4.77;1.70;;;18.40;99.90;;;;;;5091475;28;20187;-68
2022/06/30 00:38:58;;;;;;;4.00;1.53;;;18.80;99.90;;;;;;5091724;28;20175;-68
2022/06/30 00:41:26;;;;;;;4.03;1.50;;;18.00;99.90;;;;;;5091587;28;20705;-69
2022/06/30 00:43:53;;;;;;;12.97;1.90;;;17.50;99.90;;;;;;5092033;28;20690;-69
2022/06/30 00:46:21;;;;;;;2.67;1.57;;;17.50;99.90;;;;;;5095052;28;20175;-70
2022/06/30 00:48:49;;;;;;;5.73;1.60;;;17.50;99.90;;;;;;5095646;28;20259;-68
2022/06/30 00:51:17;;;;;;;6.73;1.80;;;17.60;99.90;;;;;;5095595;28;20253;-68
2022/06/30 00:53:46;;;;;;;3.60;2.03;;;17.80;99.90;;;;;;5095743;28;20270;-68
2022/06/30 00:56:15;;;;;;;7.73;1.77;;;17.40;99.90;;;;;;5095956;28;20182;-67
2022/06/30 00:58:44;;;;;;;2.37;1.33;;;18.00;99.90;;;;;;5095830;28;20645;-68
2022/06/30 01:01:13;;;;;;;3.97;1.57;;;19.00;99.90;;;;;;5095744;28;20576;-68
2022/06/30 01:03:43;;;;;;;4.97;1.50;;;19.20;99.90;;;;;;5095440;28;20167;-68
2022/06/30 01:06:12;;;;;;;7.80;1.47;;;18.70;99.90;;;;;;5095604;28;20176;-67
2022/06/30 01:08:40;;;;;;;3.13;1.37;;;18.70;99.90;;;;;;5077384;28;20268;-68
2022/06/30 01:13:53;;;;;;;3.13;1.10;;;18.20;99.90;;;;;;5095649;28;20281;-68
2022/06/30 01:16:22;;;;;;;3.67;1.53;;;18.10;99.90;;;;;;5095728;28;20198;-69
2022/06/30 01:18:50;;;;;;;1.13;0.90;;;18.40;99.90;;;;;;5095321;28;20594;-67
2022/06/30 01:21:19;;;;;;;1.90;1.07;;;18.80;99.90;;;;;;5077054;28;20712;-67
2022/06/30 01:23:47;;;;;;;1.67;1.10;;;19.10;99.90;;;;;;5095325;28;20179;-68
2022/06/30 01:26:15;;;;;;;4.70;0.90;;;19.40;99.90;;;;;;5094733;28;20317;-64
2022/06/30 01:28:42;;;;;;;1.57;0.80;;;19.10;99.90;;;;;;5071500;28;20251;-65
2022/06/30 01:31:10;;;;;;;2.97;0.87;;;18.60;99.90;;;;;;5077720;28;20180;-67
2022/06/30 01:33:38;;;;;;;6.00;1.47;;;18.00;99.90;;;;;;5091487;28;20555;-67
2022/06/30 01:36:07;;;;;;;2.40;0.97;;;18.00;99.90;;;;;;5094892;28;20179;-68
2022/06/30 01:38:34;;;;;;;2.80;0.80;;;17.60;99.90;;;;;;5088882;28;20183;-67
2022/06/30 01:41:01;;;;;;;2.57;1.50;;;17.70;99.90;;;;;;5082816;28;20184;-67
2022/06/30 01:43:29;;;;;;;6.37;1.13;;;17.60;99.90;;;;;;5094598;28;20305;-67
2022/06/30 01:45:57;;;;;;;5.63;1.00;;;17.40;99.90;;;;;;5094277;28;20175;-67
2022/06/30 01:48:24;;;;;;;1.80;1.20;;;17.60;99.90;;;;;;5094737;28;20321;-66
2022/06/30 01:50:52;;;;;;;1.77;1.20;;;17.60;99.90;;;;;;5094585;28;20186;-66
2022/06/30 01:53:19;;;;;;;2.80;1.00;;;18.30;99.90;;;;;;5094560;28;20656;-67
2022/06/30 01:55:47;;;;;;;1.77;1.00;;;19.10;99.90;;;;;;5093178;28;20179;-67
2022/06/30 01:58:14;;;;;;;3.70;1.00;;;18.90;99.90;;;;;;5094482;28;20200;-67
2022/06/30 02:00:41;;;;;;;0.97;0.70;;;18.70;99.90;;;;;;5093492;28;20530;-66
2022/06/30 02:03:09;;;;;;;3.03;0.87;;;18.20;99.90;;;;;;5087453;28;20187;-66
2022/06/30 02:05:37;;;;;;;13.70;1.50;;;17.90;99.90;;;;;;5092246;28;20179;-66
2022/06/30 02:08:04;;;;;;;1.57;0.90;;;17.80;99.90;;;;;;5074338;28;20214;-67
2022/06/30 02:10:31;;;;;;;3.03;1.07;;;17.90;99.90;;;;;;5074258;28;20171;-66
2022/06/30 02:12:59;;;;;;;2.83;1.17;;;17.80;99.90;;;;;;5074279;28;20622;-66
2022/06/30 02:15:32;;;;;;;3.30;1.13;;;18.40;99.90;;;;;;5056179;28;20168;-66
2022/06/30 02:18:02;;;;;;;3.43;0.90;;;18.70;99.90;;;;;;5091233;28;20609;-68
2022/06/30 02:20:30;;;;;;;1.90;0.83;;;18.70;99.90;;;;;;5099920;28;20194;-68
2022/06/30 02:22:59;;;;;;;2.83;0.97;;;18.50;99.90;;;;;;5102316;28;20224;-68
2022/06/30 02:25:28;;;;;;;2.17;0.80;;;18.00;99.90;;;;;;5096758;28;20269;-68
2022/06/30 02:27:57;;;;;;;0.90;0.80;;;18.00;99.90;;;;;;5094052;28;20231;-68
2022/06/30 02:30:24;;;;;;;2.40;0.80;;;18.10;99.90;;;;;;5094268;28;20191;-68
2022/06/30 02:32:52;;;;;;;3.60;1.30;;;18.20;99.90;;;;;;5093584;28;20229;-68
2022/06/30 02:35:20;;;;;;;3.17;1.50;;;18.50;99.90;;;;;;5093782;28;20201;-68
2022/06/30 02:37:48;;;;;;;2.37;1.20;;;18.60;99.90;;;;;;5093906;28;20645;-68
2022/06/30 02:40:15;;;;;;;1.70;0.80;;;18.80;99.90;;;;;;5093363;28;20229;-67
2022/06/30 02:42:43;;;;;;;1.63;1.17;;;18.70;99.90;;;;;;5085512;28;20538;-68
2022/06/30 02:45:10;;;;;;;2.83;1.00;;;18.40;99.90;;;;;;5093737;28;20281;-68
2022/06/30 02:47:40;;;;;;;5.73;1.27;;;18.30;99.90;;;;;;5093641;28;20207;-68
2022/06/30 02:50:10;;;;;;;2.90;1.30;;;18.00;99.90;;;;;;5093753;28;20675;-68
2022/06/30 02:52:38;;;;;;;3.17;1.10;;;17.90;99.90;;;;;;5087891;28;20176;-67
2022/06/30 02:55:07;;;;;;;2.07;1.10;;;18.00;99.90;;;;;;5079350;28;20180;-67
2022/06/30 02:57:36;;;;;;;5.77;1.47;;;17.70;99.90;;;;;;5093332;28;20756;-68
2022/06/30 03:00:09;;;;;;;1.50;1.10;;;17.70;99.90;;;;;;5093070;28;20179;-67
2022/06/30 03:02:37;;;;;;;5.07;1.07;;;17.50;99.90;;;;;;5093505;28;20709;-68
2022/06/30 03:05:05;;;;;;;4.00;1.40;;;17.60;99.90;;;;;;5092891;28;20251;-67
2022/06/30 03:07:32;;;;;;;3.00;1.40;;;17.60;99.90;;;;;;5093172;28;20199;-67
2022/06/30 03:10:00;;;;;;;2.10;1.03;;;17.60;99.90;;;;;;5093223;28;20187;-68
2022/06/30 03:12:28;;;;;;;3.63;1.20;;;17.60;99.90;;;;;;5093483;28;20175;-68
2022/06/30 03:14:56;;;;;;;1.90;1.10;;;17.70;99.90;;;;;;5092999;28;20210;-68
2022/06/30 03:17:24;;;;;;;2.80;1.30;;;17.70;99.90;;;;;;5093416;28;20192;-68
2022/06/30 03:19:52;;;;;;;1.30;1.00;;;17.80;99.90;;;;;;5093167;28;20202;-72
2022/06/30 03:22:19;;;;;;;3.67;1.10;;;17.70;99.90;;;;;;5094194;28;20182;-70
2022/06/30 03:24:46;;;;;;;7.17;1.10;;;17.60;99.90;;;;;;5091292;28;20280;-70
2022/06/30 03:27:14;;;;;;;1.00;0.90;;;17.60;99.90;;;;;;5085426;28;20219;-71
2022/06/30 03:29:41;;;;;;;1.37;0.93;;;17.60;99.90;;;;;;5094306;28;20183;-72
2022/06/30 03:32:09;;;;;;;1.57;0.90;;;17.50;99.90;;;;;;5094328;28;20171;-71
2022/06/30 03:34:36;;;;;;;3.03;1.37;;;17.70;99.90;;;;;;5094218;28;20175;-72
2022/06/30 03:37:04;;;;;;;2.10;0.90;;;17.80;99.90;;;;;;5093993;28;20209;-72
2022/06/30 03:39:31;;;;;;;2.03;1.00;;;18.00;99.90;;;;;;5094002;28;20197;-72
2022/06/30 03:41:58;;;;;;;1.73;1.27;;;18.10;99.90;;;;;;5075758;28;20175;-71
2022/06/30 03:44:26;;;;;;;1.87;1.10;;;17.90;99.90;;;;;;5093819;28;20167;-71
2022/06/30 03:46:53;;;;;;;2.57;1.43;;;18.00;99.90;;;;;;5093870;28;20185;-71
2022/06/30 03:49:21;;;;;;;2.13;1.30;;;17.80;99.90;;;;;;5075414;28;20753;-70
2022/06/30 03:51:48;;;;;;;2.93;1.03;;;17.70;99.90;;;;;;5093917;28;20235;-71
2022/06/30 03:54:15;;;;;;;3.43;1.00;;;17.80;99.90;;;;;;5093828;28;20210;-70
2022/06/30 03:56:43;;;;;;;7.73;1.03;;;17.60;99.90;;;;;;5093875;28;20224;-71
2022/06/30 03:59:10;;;;;;;1.43;1.00;;;17.70;99.90;;;;;;5075502;28;20179;-71
2022/06/30 04:01:37;;;;;;;2.10;0.90;;;17.80;99.90;;;;;;5091316;28;20183;-71
2022/06/30 04:04:04;;;;;;;1.33;0.80;;;17.80;99.90;;;;;;5090068;28;20644;-71
2022/06/30 04:06:32;;;;;;;1.80;0.87;;;17.60;99.90;;;;;;5093745;28;20167;-72
2022/06/30 04:08:59;;;;;;;2.73;0.90;;;17.70;99.90;;;;;;5093389;28;20272;-71
2022/06/30 04:11:27;;;;;;;4.17;1.00;;;17.70;99.90;;;;;;5093654;28;20168;-70
2022/06/30 04:13:54;;;;;;;1.10;0.90;;;17.60;99.90;;;;;;5093492;28;20189;-71
2022/06/30 04:16:21;;;;;;;2.07;0.90;;;17.60;99.90;;;;;;5093412;28;20171;-70
2022/06/30 04:18:48;;;;;;;2.60;0.93;;;17.70;99.90;;;;;;5074619;28;20182;-70
2022/06/30 04:21:16;;;;;;;2.70;1.00;;;18.00;99.90;;;;;;5093489;28;20206;-69
2022/06/30 04:23:44;;;;;;;4.10;1.00;;;18.00;99.90;;;;;;5093488;28;20175;-71
2022/06/30 04:26:11;;;;;;;3.07;1.10;;;17.90;99.90;;;;;;5093262;28;20648;-68
2022/06/30 04:28:39;;;;;;;1.30;0.80;;;17.90;99.90;;;;;;5093112;28;20676;-72
2022/06/30 04:33:52;;;;;;;2.30;0.80;;;17.60;99.90;;;;;;5093783;28;20198;-68
2022/06/30 04:36:19;;;;;;;4.40;1.17;;;17.70;99.90;;;;;;5093063;28;20629;-71
2022/06/30 04:38:47;;;;;;;2.43;0.87;;;17.60;99.90;;;;;;5093063;28;20632;-70
2022/06/30 04:41:26;;;;;;;3.27;1.13;;;17.60;99.90;;;;;;5093191;28;20199;-69
2022/06/30 04:43:53;;;;;;;10.60;2.23;;;17.50;99.90;;;;;;5093255;28;20175;-72
2022/06/30 04:46:21;;;;;;;4.87;1.10;;;17.60;99.90;;;;;;5093594;28;20182;-69
2022/06/30 04:48:49;;;;;;;3.87;1.20;;;17.60;99.90;;;;;;5092754;28;20258;-67
2022/06/30 04:51:17;;;;;;;3.07;1.00;;;17.60;99.90;;;;;;5093186;28;20633;-72
2022/06/30 04:53:44;;;;;;;3.43;1.40;;;17.60;99.90;;;;;;5092966;28;20179;-69
2022/06/30 04:56:12;;;;;;;3.47;1.27;;;17.70;99.90;;;;;;5093049;28;20171;-69
2022/06/30 04:58:40;;;;;;;2.73;1.20;;;17.70;99.90;;;;;;5092915;28;20178;-70
2022/06/30 05:01:07;;;;;;;4.43;1.00;;;17.80;99.90;;;;;;5092953;28;20172;-73
2022/06/30 05:03:36;;;;;;;3.37;0.90;;;17.90;99.90;;;;;;5093198;28;20203;-72
2022/06/30 05:06:08;;;;;;;3.63;1.20;;;18.10;99.90;;;;;;5094874;28;20170;-72
2022/06/30 05:08:35;;;;;;;1.77;0.90;;;18.40;99.90;;;;;;5108042;28;20219;-70
2022/06/30 05:11:03;;;;;;;3.23;1.10;;;18.20;99.90;;;;;;5103047;28;20670;-71
2022/06/30 05:13:30;;;;;;;3.53;1.03;;;18.20;99.90;;;;;;5092959;28;20175;-72
2022/06/30 05:15:59;;;;;;;2.37;1.30;;;18.00;99.90;;;;;;5092867;28;20226;-72
2022/06/30 05:18:27;;;;;;;4.07;1.00;;;17.90;99.90;;;;;;5092564;28;20175;-72
2022/06/30 05:20:55;;;;;;;1.57;0.90;;;17.70;99.90;;;;;;5092616;28;20327;-71
2022/06/30 05:23:22;;;;;;;2.80;0.90;;;17.50;99.90;;;;;;5092770;28;20183;-72
2022/06/30 05:28:35;;;;;;;1.47;1.00;;;17.20;99.90;;;;;;5088561;28;20222;-72
2022/06/30 05:31:02;;;;;;;1.33;0.80;;;17.10;99.90;;;;;;5095172;28;20171;-71
2022/06/30 05:33:30;;;;;;;4.70;0.70;;;16.90;99.90;;;;;;5096517;28;20329;-72
2022/06/30 05:35:59;;;;;;;1.07;0.80;;;16.80;99.90;;;;;;5076770;28;20182;-67
2022/06/30 05:38:27;;;;;;;2.97;0.70;;;16.80;99.90;;;;;;5095340;28;20183;-67
2022/06/30 05:40:54;;;;;;;30.27;3.07;;;16.70;99.90;;;;;;5095816;28;20180;-68
2022/06/30 05:43:21;;;;;;;2.87;0.70;;;16.60;99.90;;;;;;5077412;28;20203;-68
2022/06/30 05:45:51;;;;;;;4.43;1.03;;;16.50;99.90;;;;;;5095027;28;20171;-66
2022/06/30 05:48:18;;;;;;;2.10;0.77;;;16.50;99.90;;;;;;5096056;28;20203;-67
2022/06/30 05:50:47;;;;;;;3.93;1.10;;;16.40;99.90;;;;;;5095766;28;20182;-67
2022/06/30 05:53:15;;;;;;;1.47;0.80;;;16.40;99.90;;;;;;5096023;28;20179;-67
2022/06/30 05:55:42;;;;;;;8.50;1.30;;;16.40;99.90;;;;;;5096171;28;20301;-67
2022/06/30 05:58:11;;;;;;;4.73;0.97;;;16.30;99.90;;;;;;5094626;28;20183;-67
2022/06/30 06:00:39;;;;;;;4.77;0.87;;;16.30;99.90;;;;;;5094139;28;20258;-68
2022/06/30 06:03:06;;;;;;;1.90;0.77;;;16.20;99.90;;;;;;5095872;28;20175;-68
2022/06/30 06:05:33;;;;;;;2.50;1.00;;;16.10;99.90;;;;;;5096002;28;20205;-67
2022/06/30 06:08:08;;;;;;;1.63;0.80;;;16.00;99.90;;;;;;5095960;28;20282;-68
2022/06/30 06:10:36;;;;;;;2.97;1.00;;;16.00;99.90;;;;;;5096086;28;20516;-68
2022/06/30 06:13:04;;;;;;;3.50;1.10;;;15.90;99.90;;;;;;5077524;28;20209;-68
2022/06/30 06:15:32;;;;;;;2.23;0.80;;;15.80;99.90;;;;;;5095791;28;20629;-68
2022/06/30 06:17:59;;;;;;;2.93;0.87;;;15.70;99.90;;;;;;5077369;28;20193;-68
2022/06/30 06:20:26;;;;;;;5.17;0.90;;;15.60;99.90;;;;;;5095519;28;20232;-67
2022/06/30 06:22:54;;;;;;;6.00;1.00;;;15.60;99.90;;;;;;5095720;28;20241;-67
2022/06/30 06:25:21;;;;;;;3.03;0.83;;;15.50;99.90;;;;;;5095773;28;20549;-67
2022/06/30 06:30:36;;;;;;;6.20;0.90;;;15.40;99.90;;;;;;5095906;28;20228;-68
2022/06/30 06:33:03;;;;;;;2.80;1.07;;;15.20;99.90;;;;;;5095478;28;20223;-68
2022/06/30 06:35:31;;;;;;;2.13;0.80;;;15.20;99.90;;;;;;5095242;28;20171;-67
2022/06/30 06:37:58;;;;;;;2.27;1.00;;;15.10;99.90;;;;;;5095221;28;20240;-68
2022/06/30 06:40:25;;;;;;;1.63;0.80;;;15.00;99.90;;;;;;5095014;28;20555;-67
2022/06/30 06:42:53;;;;;;;6.10;1.07;;;14.90;99.90;;;;;;5094679;28;20193;-68
2022/06/30 06:45:20;;;;;;;2.23;1.20;;;14.80;99.90;;;;;;5095302;28;20225;-67
2022/06/30 06:47:48;;;;;;;3.13;1.03;;;14.70;99.90;;;;;;5094913;28;20695;-67
2022/06/30 06:50:15;;;;;;;1.93;0.90;;;14.70;99.90;;;;;;5095060;28;20179;-69
2022/06/30 06:52:43;;;;;;;2.80;1.10;;;14.60;99.90;;;;;;5095067;28;20179;-68
2022/06/30 06:55:11;;;;;;;1.73;1.20;;;14.50;99.90;;;;;;5076658;28;20557;-68
2022/06/30 06:57:40;;;;;;;2.10;1.30;;;14.50;99.90;;;;;;5094884;28;20191;-68
2022/06/30 07:00:09;;;;;;;2.07;1.23;;;14.40;99.90;;;;;;5094890;28;20697;-68
2022/06/30 07:02:37;;;;;;;2.57;1.37;;;14.20;99.90;;;;;;5094735;28;20349;-68
2022/06/30 07:05:04;;;;;;;2.97;1.00;;;14.10;99.90;;;;;;5094950;28;20305;-68
2022/06/30 07:07:32;;;;;;;3.83;1.20;;;14.10;99.90;;;;;;5094575;28;20242;-68
2022/06/30 07:09:59;;;;;;;1.33;1.10;;;14.00;99.90;;;;;;5094799;28;20640;-67
2022/06/30 07:12:26;;;;;;;2.83;1.20;;;13.90;99.90;;;;;;5094694;28;20189;-68
2022/06/30 07:14:53;;;;;;;5.17;1.40;;;13.80;99.90;;;;;;5094725;28;20170;-68
2022/06/30 07:17:21;;;;;;;2.73;1.50;;;13.80;99.90;;;;;;5094381;28;20186;-68
2022/06/30 07:19:48;;;;;;;5.57;1.70;;;13.70;99.90;;;;;;5094502;28;20563;-68
2022/06/30 07:22:17;;;;;;;3.40;1.73;;;13.60;99.90;;;;;;5076320;28;20553;-68
2022/06/30 07:24:44;;;;;;;2.77;1.20;;;13.60;99.90;;;;;;5094370;28;20190;-68
2022/06/30 07:27:12;;;;;;;2.77;1.47;;;13.60;99.90;;;;;;5094304;28;20230;-67
2022/06/30 07:29:40;;;;;;;3.43;1.47;;;13.50;99.90;;;;;;5094406;28;20595;-68
2022/06/30 07:32:07;;;;;;;2.50;1.63;;;13.50;99.90;;;;;;5103948;28;20179;-67
2022/06/30 07:34:35;;;;;;;3.23;1.43;;;13.50;99.90;;;;;;5105317;28;20185;-67
2022/06/30 07:37:02;;;;;;;3.10;1.47;;;13.40;99.90;;;;;;5099709;28;20629;-67
2022/06/30 07:39:29;;;;;;;3.00;1.73;;;13.40;99.90;;;;;;5094661;28;20178;-67
2022/06/30 07:41:57;;;;;;;3.17;1.80;;;13.40;99.90;;;;;;5094437;28;20551;-68
2022/06/30 07:44:24;;;;;;;1.87;1.40;;;13.40;99.90;;;;;;5094148;28;20170;-67
2022/06/30 07:46:51;;;;;;;4.63;1.60;;;13.30;99.90;;;;;;5093939;28;20474;-68
2022/06/30 07:49:19;;;;;;;4.90;1.90;;;13.30;99.90;;;;;;5092978;28;20218;-68
2022/06/30 07:51:46;;;;;;;2.57;1.50;;;13.20;99.90;;;;;;5094021;28;20248;-68
2022/06/30 07:54:14;;;;;;;4.73;1.93;;;13.20;99.90;;;;;;5092928;28;20190;-68
2022/06/30 07:56:41;;;;;;;2.63;1.63;;;13.10;99.90;;;;;;5093919;28;20186;-68
2022/06/30 07:59:09;;;;;;;3.47;1.83;;;13.10;99.90;;;;;;5093763;28;20251;-68
2022/06/30 08:01:36;;;;;;;6.17;2.50;;;13.00;99.90;;;;;;5093911;28;20174;-68
2022/06/30 08:04:03;;;;;;;4.93;2.67;;;13.00;99.90;;;;;;5093988;28;20202;-69
2022/06/30 08:06:31;;;;;;;6.03;2.10;;;13.00;99.90;;;;;;5093772;28;20725;-69
2022/06/30 08:08:58;;;;;;;6.17;2.13;;;13.00;99.90;;;;;;5093731;28;20202;-68
2022/06/30 08:11:28;;;;;;;4.50;2.37;;;13.00;99.90;;;;;;5093765;28;20195;-68
2022/06/30 08:13:55;;;;;;;5.47;2.43;;;12.90;99.90;;;;;;5093665;28;20210;-67
2022/06/30 08:16:22;;;;;;;5.07;2.40;;;12.90;99.90;;;;;;5093389;28;20648;-66
2022/06/30 08:18:50;;;;;;;7.90;2.13;;;12.80;99.90;;;;;;5093310;28;20554;-68
2022/06/30 08:21:17;;;;;;;3.93;2.27;;;12.80;99.90;;;;;;5093391;28;20182;-68
2022/06/30 08:23:44;;;;;;;6.53;2.33;;;12.80;99.90;;;;;;5093246;28;20186;-67
2022/06/30 08:26:12;;;;;;;3.37;2.13;;;12.70;99.90;;;;;;5093360;28;20171;-68
2022/06/30 08:28:39;;;;;;;4.57;1.87;;;12.70;99.90;;;;;;5093071;28;20221;-68
2022/06/30 08:31:06;;;;;;;7.23;2.40;;;12.70;99.90;;;;;;5093438;28;20179;-68
2022/06/30 08:33:34;;;;;;;4.77;2.10;;;12.60;99.90;;;;;;5093377;28;20255;-68
2022/06/30 08:36:01;;;;;;;4.87;2.13;;;12.60;99.90;;;;;;5093402;28;20178;-68
2022/06/30 08:38:30;;;;;;;3.93;2.30;;;12.60;99.90;;;;;;5092999;28;20649;-68
2022/06/30 08:43:44;;;;;;;4.20;2.20;;;12.50;99.90;;;;;;5093725;28;20208;-68
2022/06/30 08:46:13;;;;;;;8.53;2.30;;;12.50;99.90;;;;;;5093089;28;20177;-67
2022/06/30 08:48:41;;;;;;;4.17;2.50;;;12.50;99.90;;;;;;5093186;28;20688;-68
2022/06/30 08:51:08;;;;;;;8.33;2.53;;;12.50;99.90;;;;;;5093179;28;20208;-70
2022/06/30 08:53:45;;;;;;;9.20;3.03;;;12.40;99.90;;;;;;5093229;28;20210;-68
2022/06/30 08:56:13;;;;;;;6.80;3.63;;;12.40;99.90;;;;;;5093156;28;20174;-70
2022/06/30 08:58:42;;;;;;;6.60;2.90;;;12.50;99.90;;;;;;5092797;28;20182;-68
2022/06/30 09:01:10;;;;;;;4.80;3.07;;;12.40;99.90;;;;;;5093105;28;20188;-69
2022/06/30 09:03:39;;;;;;;6.30;3.47;;;12.40;99.90;;;;;;5093003;28;20166;-68
2022/06/30 09:06:07;;;;;;;7.10;3.47;;;12.40;99.90;;;;;;5095715;28;20185;-68
2022/06/30 09:08:37;;;;;;;5.77;3.30;;;12.30;99.90;;;;;;5096940;28;20217;-68
2022/06/30 09:11:04;;;;;;;7.47;3.70;;;12.30;99.90;;;;;;5097170;28;20255;-68
2022/06/30 09:14:03;;;;;;;5.20;3.23;;;12.30;99.90;;;;;;5097385;28;20177;-68
2022/06/30 09:16:31;;;;;;;8.43;3.30;;;12.30;99.90;;;;;;5063554;28;20234;-68
2022/06/30 09:19:03;;;;;;;6.13;3.70;;;12.20;99.90;;;;;;5096942;28;20650;-68
2022/06/30 09:21:32;;;;;;;8.97;4.07;;;12.20;99.90;;;;;;5096855;28;20177;-68
2022/06/30 09:23:59;;;;;;;5.30;3.30;;;12.20;99.90;;;;;;5096955;28;20176;-68
2022/06/30 09:26:26;;;;;;;8.33;3.83;;;12.20;99.90;;;;;;5096545;28;20180;-68
2022/06/30 09:28:55;;;;;;;7.77;3.97;;;12.10;99.90;;;;;;5096696;28;20258;-68
2022/06/30 09:31:39;;;;;;;5.47;3.77;;;12.10;99.90;;;;;;5096681;28;20182;-68
2022/06/30 09:34:18;;;;;;;11.33;7.53;;;12.10;99.90;;;;;;5078367;28;20280;-68
2022/06/30 09:36:55;;;;;;;8.97;5.97;;;12.10;99.90;;;;;;5096586;28;20187;-68
2022/06/30 09:39:23;;;;;;;20.87;6.40;;;12.10;99.90;;;;;;5096477;28;20186;-68
2022/06/30 09:41:51;;;;;;;8.63;6.20;;;12.10;99.90;;;;;;5096545;28;20230;-68
2022/06/30 09:44:21;;;;;;;13.10;5.90;;;12.10;99.90;;;;;;5096292;28;20186;-68
2022/06/30 09:47:03;;;;;;;11.50;6.13;;;12.00;99.90;;;;;;5096385;28;20540;-68
2022/06/30 09:49:42;;;;;;;8.17;5.23;;;12.00;99.90;;;;;;5096090;28;20327;-68
2022/06/30 09:52:22;;;;;;;9.67;5.63;;;12.00;99.90;;;;;;5096212;28;20189;-68
2022/06/30 09:54:54;;;;;;;9.63;5.30;;;12.00;99.90;;;;;;5096349;28;20176;-68
2022/06/30 09:57:24;;;;;;;8.37;5.07;;;12.00;99.90;;;;;;5095788;28;20186;-68
2022/06/30 10:00:05;;;;;;;7.03;4.70;;;12.00;99.90;;;;;;5095927;28;20182;-68
2022/06/30 10:02:39;;;;;;;9.80;4.83;;;12.00;99.90;;;;;;5095976;28;20172;-68
2022/06/30 10:05:09;;;;;;;9.77;5.57;;;11.90;99.90;;;;;;5096112;28;20177;-68
2022/06/30 10:07:38;;;;;;;6.43;4.63;;;12.00;99.90;;;;;;5095896;28;20213;-68
2022/06/30 10:10:13;;;;;;;7.13;5.40;;;12.00;99.90;;;;;;5095847;28;20175;-68
2022/06/30 10:12:44;;;;;;;8.80;4.90;;;12.00;99.90;;;;;;5096014;28;20181;-69
2022/06/30 10:15:13;;;;;;;9.83;4.93;;;12.00;99.90;;;;;;5095856;28;20189;-68
2022/06/30 10:17:53;;;;;;;6.13;4.73;;;12.00;99.90;;;;;;5094845;28;20184;-68
2022/06/30 10:20:21;;;;;;;8.93;5.07;;;12.00;99.90;;;;;;5095916;28;20548;-68
2022/06/30 10:22:49;;;;;;;6.97;4.13;;;12.10;99.90;;;;;;5095734;28;20188;-68
2022/06/30 10:25:18;;;;;;;10.93;4.47;;;12.10;99.90;;;;;;5095758;28;20174;-68
2022/06/30 10:27:47;;;;;;;10.07;4.83;;;12.10;99.90;;;;;;5095556;28;20261;-68
2022/06/30 10:30:16;;;;;;;8.27;5.33;;;12.10;99.90;;;;;;5095820;28;20633;-68
2022/06/30 10:32:50;;;;;;;10.17;5.07;;;12.10;99.90;;;;;;5095522;28;20178;-69
2022/06/30 10:35:32;;;;;;;9.97;5.40;;;12.20;99.90;;;;;;5096278;28;20173;-69
2022/06/30 10:38:21;;;;;;;10.33;5.27;;;12.20;99.90;;;;;;5095473;28;20171;-68
2022/06/30 10:40:53;;;;;;;9.97;5.40;;;12.20;99.90;;;;;;5095832;28;20264;-68
2022/06/30 10:43:20;;;;;;;6.67;4.27;;;12.20;99.90;;;;;;5095568;28;20180;-68
2022/06/30 10:46:07;;;;;;;7.00;4.00;;;12.20;99.90;;;;;;5095382;28;20173;-68
2022/06/30 10:49:10;;;;;;;10.43;3.30;;;12.30;99.90;;;;;;5077453;28;20269;-68
2022/06/30 10:51:38;;;;;;;6.43;3.00;;;12.30;99.90;;;;;;5082097;28;20191;-67
2022/06/30 10:54:06;;;;;;;6.70;3.47;;;12.30;99.90;;;;;;5095127;28;20177;-68
2022/06/30 10:56:52;;;;;;;5.70;3.47;;;12.40;99.90;;;;;;5094977;28;20694;-68
2022/06/30 10:59:29;;;;;;;8.47;3.67;;;12.40;99.90;;;;;;5095667;28;20502;-68
2022/06/30 11:02:11;;;;;;;6.87;3.33;;;12.40;99.90;;;;;;5095297;28;20178;-68
2022/06/30 11:04:44;;;;;;;7.93;3.40;;;12.40;99.90;;;;;;5095117;28;20208;-68
2022/06/30 11:07:12;;;;;;;5.87;3.70;;;12.40;99.90;;;;;;5095012;28;20211;-67
2022/06/30 11:09:49;;;;;;;7.70;3.77;;;12.50;99.90;;;;;;5094694;28;20204;-68
2022/06/30 11:12:38;;;;;;;10.00;4.50;;;12.50;99.90;;;;;;5094842;28;20165;-67
2022/06/30 11:15:06;;;;;;;8.03;3.30;;;12.50;99.90;;;;;;5094679;28;20273;-68
2022/06/30 11:17:37;;;;;;;5.40;3.37;;;12.50;99.90;;;;;;5094640;28;20584;-68
2022/06/30 11:20:12;;;;;;;9.67;3.37;;;12.50;99.90;;;;;;5094863;28;20634;-68
2022/06/30 11:22:40;;;;;;;5.20;3.43;;;12.50;99.90;;;;;;5094654;28;20586;-68
2022/06/30 11:28:05;;;;;;;4.13;2.90;;;12.50;99.90;;;;;;5094044;28;20248;-67
2022/06/30 11:30:35;;;;;;;6.07;2.97;;;12.40;99.90;;;;;;5094562;28;20266;-67
2022/06/30 11:33:03;;;;;;;5.03;2.90;;;12.40;99.90;;;;;;5094427;28;20173;-67
2022/06/30 11:35:31;;;;;;;5.60;2.90;;;12.40;99.90;;;;;;5094350;28;20560;-67
2022/06/30 11:37:58;;;;;;;7.77;3.10;;;12.40;99.90;;;;;;5094190;28;20592;-68
2022/06/30 11:40:30;;;;;;;5.10;3.07;;;12.40;99.90;;;;;;5094231;28;20176;-67
2022/06/30 11:42:57;;;;;;;6.57;2.93;;;12.40;99.90;;;;;;5094455;28;20179;-67
2022/06/30 11:45:25;;;;;;;5.47;2.73;;;12.40;99.90;;;;;;5094325;28;20347;-68
2022/06/30 11:48:03;;;;;;;5.50;3.00;;;12.40;99.90;;;;;;5094051;28;20212;-67
2022/06/30 11:50:30;;;;;;;10.87;3.20;;;12.30;99.90;;;;;;5094067;28;20178;-67
2022/06/30 11:53:00;;;;;;;5.60;3.40;;;12.40;99.90;;;;;;5094083;28;20176;-67
2022/06/30 11:55:29;;;;;;;6.00;4.07;;;12.30;99.90;;;;;;5093988;28;20191;-67
2022/06/30 11:57:57;;;;;;;6.13;3.77;;;12.30;99.90;;;;;;5093844;28;20205;-67
2022/06/30 12:00:31;;;;;;;9.27;3.57;;;12.30;99.90;;;;;;5094036;28;20210;-66
2022/06/30 12:02:59;;;;;;;4.73;2.90;;;12.40;99.90;;;;;;5093986;28;20186;-67
2022/06/30 12:05:31;;;;;;;9.90;3.17;;;12.40;99.90;;;;;;5094091;28;20673;-67
2022/06/30 12:07:58;;;;;;;5.70;2.80;;;12.40;99.90;;;;;;5093797;28;20213;-67
2022/06/30 12:10:26;;;;;;;4.07;2.57;;;12.40;99.90;;;;;;5093661;28;20182;-67
2022/06/30 12:12:55;;;;;;;8.30;2.80;;;12.40;99.90;;;;;;5093569;28;20177;-68
2022/06/30 12:15:23;;;;;;;3.33;2.50;;;12.40;99.90;;;;;;5093636;28;20173;-68
2022/06/30 12:17:53;;;;;;;7.03;2.73;;;12.40;99.90;;;;;;5093491;28;20175;-68
2022/06/30 12:20:23;;;;;;;3.97;2.70;;;12.40;99.90;;;;;;5093777;28;20185;-67
2022/06/30 12:22:52;;;;;;;4.43;3.00;;;12.40;99.90;;;;;;5093808;28;20297;-67
2022/06/30 12:25:21;;;;;;;5.30;3.10;;;12.40;99.90;;;;;;5093717;28;20184;-67
2022/06/30 12:27:53;;;;;;;4.33;2.93;;;12.40;99.90;;;;;;5093442;28;20311;-67
2022/06/30 12:30:31;;;;;;;5.50;3.53;;;12.40;99.90;;;;;;5093461;28;20267;-68
2022/06/30 12:33:04;;;;;;;6.07;2.57;;;12.40;99.90;;;;;;5093531;28;20593;-68
2022/06/30 12:35:33;;;;;;;5.37;3.07;;;12.40;99.90;;;;;;5093649;28;20543;-67
2022/06/30 12:38:13;;;;;;;4.23;2.80;;;12.40;99.90;;;;;;5093375;28;20174;-67
2022/06/30 12:40:41;;;;;;;8.23;2.83;;;12.40;99.90;;;;;;5093179;28;20172;-67
2022/06/30 12:43:09;;;;;;;4.47;3.10;;;12.40;99.90;;;;;;5093535;28;20265;-67
2022/06/30 12:45:46;;;;;;;3.57;2.57;;;12.40;99.90;;;;;;5093624;28;20529;-67
2022/06/30 12:48:48;;;;;;;4.50;2.70;;;12.40;99.90;;;;;;5093076;28;20250;-67
2022/06/30 12:51:29;;;;;;;6.27;2.47;;;12.30;99.90;;;;;;5093361;28;20655;-67
2022/06/30 12:54:07;;;;;;;5.73;3.07;;;12.40;99.90;;;;;;5102478;28;20207;-67
2022/06/30 12:56:35;;;;;;;4.70;2.73;;;12.40;99.90;;;;;;5106851;28;20176;-67
2022/06/30 12:59:06;;;;;;;7.57;2.47;;;12.30;99.90;;;;;;5102858;28;20231;-68
2022/06/30 13:01:42;;;;;;;6.27;2.63;;;12.30;99.90;;;;;;5093809;28;20178;-67
2022/06/30 13:04:23;;;;;;;5.67;2.23;;;12.30;99.90;;;;;;5093533;28;20179;-68
2022/06/30 13:06:52;;;;;;;7.13;2.50;;;12.30;99.90;;;;;;5075254;28;20589;-68
2022/06/30 13:09:28;;;;;;;4.17;2.47;;;12.30;99.90;;;;;;5093068;28;20312;-68
2022/06/30 13:11:58;;;;;;;3.93;2.67;;;12.30;99.90;;;;;;5093147;28;20254;-68
2022/06/30 13:14:29;;;;;;;2.57;2.07;;;12.20;99.90;;;;;;5093153;28;20189;-68